Time;durP1;ratioP1;P1;durP2;ratioP2;P2;SDS_P1;SDS_P2;PMS_P1;PMS_P2;Temp;Humidity;BMP_temperature;BMP_pressure;BME280_temperature;BME280_humidity;BME280_pressure;Samples;Min_cycle;Max_cycle;Signal;HPM_P1;HPM_P2
2021/08/07 10:11:42;;;;;;;3.42;2.80;;;16.60;59.30;;;;;;5059680;27;65757;-70
2021/08/07 10:14:15;;;;;;;3.55;3.10;;;17.10;59.00;;;;;;5021471;28;20281;-65
2021/08/07 10:16:46;;;;;;;3.65;3.03;;;17.30;58.70;;;;;;5008428;28;20281;-66
2021/08/07 10:19:16;;;;;;;4.00;3.40;;;17.50;58.00;;;;;;5008006;28;20232;-65
2021/08/07 10:21:49;;;;;;;4.05;3.25;;;17.70;57.40;;;;;;5008770;28;20251;-64
2021/08/07 10:28:03;;;;;;;7.47;6.05;;;17.20;52.60;;;;;;5108455;27;20883;-51
2021/08/07 10:30:34;;;;;;;6.57;5.72;;;16.00;55.10;;;;;;5067910;27;20844;-50
2021/08/07 10:33:05;;;;;;;8.07;6.40;;;15.20;57.20;;;;;;5065839;28;20335;-54
2021/08/07 10:35:36;;;;;;;7.78;6.22;;;14.70;58.80;;;;;;5051729;28;71809;-50
2021/08/07 10:38:06;;;;;;;7.03;5.40;;;14.30;59.70;;;;;;5082655;28;20234;-49
2021/08/07 10:40:37;;;;;;;7.68;5.60;;;14.10;60.60;;;;;;5067332;28;20234;-50
2021/08/07 10:43:09;;;;;;;7.80;5.40;;;14.00;61.40;;;;;;5068210;28;20344;-52
2021/08/07 10:45:42;;;;;;;6.20;5.05;;;13.90;62.00;;;;;;5067278;28;20654;-50
2021/08/07 10:48:36;;;;;;;8.52;5.72;;;13.70;62.30;;;;;;5067190;28;20195;-50
2021/08/07 10:51:34;;;;;;;7.78;5.55;;;13.70;62.80;;;;;;5066745;28;20199;-51
2021/08/07 10:54:05;;;;;;;6.07;5.35;;;13.60;62.90;;;;;;5067601;28;20203;-50
2021/08/07 10:56:40;;;;;;;7.50;5.32;;;13.60;63.20;;;;;;5067188;28;20235;-52
2021/08/07 10:59:24;;;;;;;8.07;5.50;;;13.50;63.30;;;;;;5066933;28;20294;-52
2021/08/07 11:01:54;;;;;;;5.65;5.07;;;13.50;63.60;;;;;;5066789;28;20282;-52
2021/08/07 11:04:27;;;;;;;6.95;5.20;;;13.40;63.60;;;;;;5067429;28;20671;-52
2021/08/07 11:07:04;;;;;;;6.07;5.00;;;13.40;63.80;;;;;;5067220;28;20223;-55
2021/08/07 11:09:36;;;;;;;6.60;4.82;;;13.40;64.00;;;;;;5066180;28;20281;-49
2021/08/07 11:12:30;;;;;;;6.30;4.35;;;13.30;63.90;;;;;;5067476;28;20720;-51
2021/08/07 11:15:06;;;;;;;6.93;5.10;;;13.30;64.00;;;;;;5067129;28;20562;-51
2021/08/07 11:17:48;;;;;;;5.18;4.68;;;13.30;64.00;;;;;;5065948;28;20234;-50
2021/08/07 11:20:50;;;;;;;9.70;5.30;;;13.30;64.00;;;;;;5066645;28;20202;-51
2021/08/07 11:23:23;;;;;;;6.18;4.95;;;13.30;64.20;;;;;;5066941;28;20237;-50
2021/08/07 11:26:11;;;;;;;5.88;4.80;;;13.20;64.10;;;;;;5065775;28;20774;-50
2021/08/07 11:29:11;;;;;;;5.85;5.00;;;13.20;64.30;;;;;;5066816;28;20199;-47
2021/08/07 11:31:43;;;;;;;5.95;5.28;;;13.20;64.40;;;;;;5004708;28;20723;-49
2021/08/07 11:37:14;;;;;;;6.93;5.13;;;13.10;64.40;;;;;;5005742;28;20208;-46
2021/08/07 11:40:09;;;;;;;5.03;4.53;;;13.10;64.50;;;;;;4993440;28;20212;-48
2021/08/07 11:42:41;;;;;;;6.18;4.97;;;13.10;64.50;;;;;;4993191;28;20492;-46
2021/08/07 11:45:12;;;;;;;5.95;5.22;;;13.10;64.50;;;;;;4993783;28;20297;-45
2021/08/07 11:47:51;;;;;;;6.53;5.15;;;13.00;64.60;;;;;;4993345;28;20320;-45
2021/08/07 11:50:21;;;;;;;7.32;5.65;;;13.00;64.70;;;;;;4994205;28;20766;-44
2021/08/07 11:52:52;;;;;;;6.25;5.40;;;13.00;64.60;;;;;;4993726;28;20687;-48
2021/08/07 11:55:22;;;;;;;6.28;4.95;;;12.90;64.50;;;;;;4993305;28;20775;-46
2021/08/07 11:58:09;;;;;;;6.50;4.70;;;13.00;64.70;;;;;;4993232;28;20253;-45
2021/08/07 12:00:40;;;;;;;6.22;4.80;;;12.90;64.60;;;;;;4993211;28;20696;-44
2021/08/07 12:03:12;;;;;;;6.15;4.80;;;12.90;64.50;;;;;;4992987;28;20299;-44
2021/08/07 12:05:52;;;;;;;5.13;4.63;;;12.90;64.60;;;;;;4992835;28;20297;-44
2021/08/07 12:08:23;;;;;;;6.25;4.68;;;12.90;64.60;;;;;;4993791;28;20264;-43
2021/08/07 12:10:54;;;;;;;5.63;4.53;;;12.90;64.70;;;;;;4992379;28;20228;-48
2021/08/07 12:13:25;;;;;;;5.70;4.78;;;12.80;64.70;;;;;;4992165;28;20232;-43
2021/08/07 12:15:58;;;;;;;5.80;4.45;;;12.80;64.70;;;;;;4992352;28;20753;-46
2021/08/07 12:18:41;;;;;;;5.85;4.60;;;12.80;64.70;;;;;;4992378;28;20237;-46
2021/08/07 12:21:12;;;;;;;5.50;5.00;;;12.80;64.70;;;;;;4992709;28;20236;-44
2021/08/07 12:23:45;;;;;;;6.50;4.60;;;12.80;64.80;;;;;;4993685;28;20229;-46
2021/08/07 12:26:16;;;;;;;5.10;4.60;;;12.80;64.80;;;;;;4993633;28;20249;-49
2021/08/07 12:28:46;;;;;;;5.93;4.78;;;12.70;64.80;;;;;;4992902;28;20240;-44
2021/08/07 12:31:17;;;;;;;4.13;3.65;;;12.70;64.80;;;;;;4992937;28;20244;-45
2021/08/07 12:33:49;;;;;;;5.05;4.00;;;12.70;64.80;;;;;;4992739;28;20229;-43
2021/08/07 12:36:20;;;;;;;6.22;4.95;;;12.60;64.70;;;;;;5002731;23;20261;-61
2021/08/07 12:38:51;;;;;;;5.05;4.03;;;12.70;64.80;;;;;;4992807;28;20202;-60
2021/08/07 12:41:22;;;;;;;5.57;4.47;;;12.70;64.90;;;;;;4992033;28;20236;-59
2021/08/07 12:43:52;;;;;;;5.32;4.32;;;12.60;64.70;;;;;;4992041;28;20560;-59
2021/08/07 12:46:23;;;;;;;6.47;4.30;;;12.60;64.70;;;;;;4992854;28;20213;-60
2021/08/07 12:48:59;;;;;;;6.40;4.28;;;12.60;65.50;;;;;;4991631;28;20201;-59
2021/08/07 12:51:31;;;;;;;3.83;3.42;;;12.60;64.80;;;;;;4992787;28;20197;-59
2021/08/07 12:54:03;;;;;;;4.82;4.00;;;12.60;64.90;;;;;;4990927;28;20571;-60
2021/08/07 12:56:33;;;;;;;4.95;4.00;;;12.60;64.90;;;;;;4992366;28;20306;-59
2021/08/07 12:59:05;;;;;;;6.70;4.43;;;12.60;64.90;;;;;;4992280;28;20244;-60
2021/08/07 13:01:36;;;;;;;4.32;3.83;;;12.50;64.90;;;;;;4991661;28;20284;-60
2021/08/07 13:04:08;;;;;;;5.43;4.30;;;12.50;65.70;;;;;;4991061;28;20624;-60
2021/08/07 13:06:53;;;;;;;4.95;4.30;;;12.50;64.90;;;;;;4990268;28;20584;-59
2021/08/07 13:09:27;;;;;;;5.45;4.10;;;12.50;64.90;;;;;;4989008;28;20348;-58
2021/08/07 13:12:11;;;;;;;5.95;3.92;;;12.50;64.90;;;;;;4992581;28;20668;-59
2021/08/07 13:14:42;;;;;;;6.10;4.47;;;12.50;64.90;;;;;;4980906;28;20328;-60
2021/08/07 13:17:13;;;;;;;5.72;3.83;;;12.40;64.90;;;;;;4989108;28;20245;-61
2021/08/07 13:19:51;;;;;;;6.03;4.20;;;12.40;64.90;;;;;;4990379;28;20632;-60
2021/08/07 13:22:22;;;;;;;5.72;3.78;;;12.40;64.90;;;;;;4992318;28;20245;-60
2021/08/07 13:24:56;;;;;;;4.55;3.70;;;12.40;64.90;;;;;;4991306;28;20308;-60
2021/08/07 13:27:39;;;;;;;4.20;3.70;;;12.40;64.90;;;;;;4991365;28;20228;-59
2021/08/07 13:30:10;;;;;;;4.90;3.78;;;12.40;64.90;;;;;;4992240;28;20240;-59
2021/08/07 13:32:40;;;;;;;4.90;4.13;;;12.40;64.90;;;;;;4991039;28;20333;-60
2021/08/07 13:35:14;;;;;;;4.63;3.42;;;12.30;64.90;;;;;;5005381;23;20256;-51
2021/08/07 13:37:44;;;;;;;3.72;3.13;;;12.40;65.00;;;;;;4989683;28;20232;-51
2021/08/07 13:40:15;;;;;;;4.93;3.75;;;12.30;65.00;;;;;;4983535;28;20256;-51
2021/08/07 13:42:45;;;;;;;3.85;3.45;;;12.30;65.00;;;;;;4991637;28;20251;-42
2021/08/07 13:45:16;;;;;;;4.43;3.13;;;12.30;65.70;;;;;;4991862;28;20694;-42
2021/08/07 13:47:46;;;;;;;6.20;3.80;;;12.20;65.00;;;;;;4992291;28;20308;-45
2021/08/07 13:50:19;;;;;;;4.70;3.67;;;12.20;65.00;;;;;;4992534;28;20670;-43
2021/08/07 13:52:49;;;;;;;4.10;3.45;;;12.20;65.00;;;;;;4992265;28;20596;-45
2021/08/07 13:55:19;;;;;;;4.32;3.67;;;12.20;65.00;;;;;;4991958;28;20260;-43
2021/08/07 13:57:50;;;;;;;4.47;3.72;;;12.20;65.00;;;;;;4991588;28;20294;-45
2021/08/07 14:00:20;;;;;;;4.32;3.55;;;12.20;65.00;;;;;;4986745;28;20222;-43
2021/08/07 14:02:51;;;;;;;4.93;3.50;;;12.20;65.00;;;;;;4972977;28;20237;-44
2021/08/07 14:05:23;;;;;;;4.60;3.63;;;12.20;65.10;;;;;;4973016;28;20254;-43
2021/08/07 14:07:54;;;;;;;4.30;3.38;;;12.20;65.00;;;;;;4972273;28;20321;-42
2021/08/07 14:10:24;;;;;;;4.40;3.55;;;12.20;65.10;;;;;;4972687;28;20281;-45
2021/08/07 14:12:54;;;;;;;4.55;3.53;;;12.20;65.10;;;;;;4972958;28;20294;-43
2021/08/07 14:15:25;;;;;;;5.05;4.00;;;12.20;65.20;;;;;;4972790;28;20517;-45
2021/08/07 14:17:55;;;;;;;4.32;3.25;;;12.10;65.00;;;;;;4972544;28;20285;-43
2021/08/07 14:20:28;;;;;;;4.43;3.40;;;12.10;65.10;;;;;;4972217;28;20233;-43
2021/08/07 14:22:58;;;;;;;3.80;3.40;;;12.10;65.10;;;;;;4972249;28;20631;-42
2021/08/07 14:25:29;;;;;;;3.45;3.15;;;12.10;65.90;;;;;;4972039;28;20341;-43
2021/08/07 14:27:59;;;;;;;5.28;3.38;;;12.10;65.10;;;;;;4972359;28;20226;-42
2021/08/07 14:30:30;;;;;;;4.35;3.20;;;12.10;65.20;;;;;;4972600;28;20241;-42
2021/08/07 14:33:01;;;;;;;4.10;3.00;;;12.10;65.20;;;;;;4972102;28;20236;-44
2021/08/07 14:35:34;;;;;;;3.97;3.22;;;12.00;65.10;;;;;;4972500;28;20702;-44
2021/08/07 14:38:04;;;;;;;4.30;3.28;;;12.00;65.10;;;;;;4972208;28;20268;-44
2021/08/07 14:40:34;;;;;;;3.83;3.22;;;12.10;65.20;;;;;;4972107;28;20340;-42
2021/08/07 14:43:05;;;;;;;4.30;3.50;;;12.00;65.10;;;;;;4971964;28;20233;-42
2021/08/07 14:45:35;;;;;;;3.75;3.05;;;12.10;65.20;;;;;;4971745;28;20249;-42
2021/08/07 14:48:06;;;;;;;3.85;3.20;;;12.00;65.10;;;;;;4971726;28;20312;-43
2021/08/07 14:50:38;;;;;;;4.25;2.97;;;12.00;65.10;;;;;;4971746;28;20233;-44
2021/08/07 14:53:09;;;;;;;5.00;3.42;;;12.00;65.20;;;;;;4972232;28;20624;-42
2021/08/07 14:55:39;;;;;;;3.75;3.20;;;12.00;65.20;;;;;;4971936;28;20764;-43
2021/08/07 14:58:09;;;;;;;4.43;3.28;;;12.00;65.20;;;;;;4972016;28;20285;-42
2021/08/07 15:00:40;;;;;;;3.97;3.20;;;12.00;65.20;;;;;;4969900;28;20226;-42
2021/08/07 15:03:10;;;;;;;4.13;3.53;;;11.90;65.20;;;;;;4963499;28;20732;-42
2021/08/07 15:05:43;;;;;;;4.70;3.20;;;11.90;65.20;;;;;;4971690;28;20704;-43
2021/08/07 15:08:13;;;;;;;5.38;3.45;;;11.90;65.20;;;;;;4971898;28;20753;-42
2021/08/07 15:10:43;;;;;;;3.30;3.00;;;11.90;65.20;;;;;;4972033;28;20241;-44
2021/08/07 15:13:14;;;;;;;3.25;2.78;;;11.90;65.20;;;;;;4973707;28;20226;-42
2021/08/07 15:15:44;;;;;;;2.97;2.67;;;11.90;65.20;;;;;;4975819;28;20250;-46
2021/08/07 15:18:15;;;;;;;3.88;2.78;;;11.90;65.20;;;;;;4976226;28;20229;-42
2021/08/07 15:20:47;;;;;;;4.32;3.13;;;11.80;65.20;;;;;;4975703;28;20600;-42
2021/08/07 15:23:17;;;;;;;3.65;2.78;;;11.90;65.20;;;;;;4966811;28;20625;-48
2021/08/07 15:25:48;;;;;;;4.20;3.20;;;11.90;65.20;;;;;;4972661;28;20659;-42
2021/08/07 15:28:18;;;;;;;4.15;3.00;;;11.90;65.20;;;;;;4975651;28;20276;-44
2021/08/07 15:30:52;;;;;;;3.10;2.80;;;11.90;65.20;;;;;;4976041;28;20238;-44
2021/08/07 15:33:23;;;;;;;3.45;2.70;;;11.80;65.20;;;;;;4975691;28;20663;-42
2021/08/07 15:35:55;;;;;;;2.95;2.63;;;11.80;65.20;;;;;;4975764;28;20669;-43
2021/08/07 15:38:25;;;;;;;3.10;2.80;;;11.80;65.30;;;;;;4975299;28;20259;-45
2021/08/07 15:40:56;;;;;;;3.35;2.60;;;11.80;65.30;;;;;;4974848;28;20635;-42
2021/08/07 15:43:27;;;;;;;3.17;2.75;;;11.80;65.30;;;;;;4974813;28;20234;-43
2021/08/07 15:45:57;;;;;;;3.17;2.80;;;11.80;65.30;;;;;;4974724;28;20250;-43
2021/08/07 15:48:28;;;;;;;3.80;2.80;;;11.80;65.40;;;;;;4974708;28;20317;-42
2021/08/07 15:51:00;;;;;;;4.18;3.22;;;11.80;65.40;;;;;;4975079;28;20620;-48
2021/08/07 15:53:30;;;;;;;2.75;2.40;;;11.80;65.40;;;;;;4975229;28;20194;-48
2021/08/07 15:56:01;;;;;;;2.88;2.60;;;11.70;65.30;;;;;;4975167;28;20257;-42
2021/08/07 15:58:31;;;;;;;2.83;2.47;;;11.70;65.40;;;;;;4975181;28;20198;-45
2021/08/07 16:01:02;;;;;;;3.97;2.85;;;11.70;65.30;;;;;;4975159;28;20626;-43
2021/08/07 16:03:32;;;;;;;2.75;2.45;;;11.70;65.30;;;;;;4974735;28;20288;-42
2021/08/07 16:06:04;;;;;;;2.78;2.50;;;11.70;65.30;;;;;;4974791;28;20260;-42
2021/08/07 16:08:35;;;;;;;2.95;2.55;;;11.70;66.10;;;;;;4973865;28;20314;-42
2021/08/07 16:11:05;;;;;;;3.30;2.40;;;11.70;65.40;;;;;;4974215;28;20222;-42
2021/08/07 16:13:36;;;;;;;2.75;2.53;;;11.70;65.40;;;;;;4974357;28;20239;-46
2021/08/07 16:16:07;;;;;;;3.00;2.47;;;11.70;65.40;;;;;;4974367;28;20318;-42
2021/08/07 16:18:37;;;;;;;3.55;2.75;;;11.70;65.50;;;;;;4974738;28;20237;-44
2021/08/07 16:21:12;;;;;;;3.63;2.67;;;11.70;65.50;;;;;;4974370;28;20206;-44
2021/08/07 16:23:43;;;;;;;5.18;2.67;;;11.60;65.50;;;;;;4973823;28;20685;-42
2021/08/07 16:26:13;;;;;;;3.33;2.65;;;11.70;65.50;;;;;;4974281;28;20587;-42
2021/08/07 16:28:44;;;;;;;2.80;2.60;;;11.70;65.50;;;;;;4974201;28;20654;-45
2021/08/07 16:31:14;;;;;;;3.45;2.67;;;11.60;65.50;;;;;;4974099;28;20202;-43
2021/08/07 16:33:44;;;;;;;2.90;2.60;;;11.60;65.50;;;;;;4973934;28;20237;-46
2021/08/07 16:36:17;;;;;;;3.55;2.58;;;11.60;65.50;;;;;;5008662;23;20263;-59
2021/08/07 16:38:47;;;;;;;2.80;2.47;;;11.60;65.60;;;;;;4993448;28;20262;-59
2021/08/07 16:41:17;;;;;;;2.58;2.38;;;11.60;65.50;;;;;;4993659;28;20440;-59
2021/08/07 16:43:48;;;;;;;2.53;2.30;;;11.60;65.50;;;;;;4993721;28;20194;-60
2021/08/07 16:46:18;;;;;;;2.78;2.30;;;11.60;65.60;;;;;;4993763;28;20253;-59
2021/08/07 16:48:49;;;;;;;3.15;2.38;;;11.60;65.50;;;;;;4993494;28;20226;-59
2021/08/07 16:51:23;;;;;;;2.58;2.38;;;11.60;65.50;;;;;;4993117;28;20284;-60
2021/08/07 16:53:53;;;;;;;2.80;2.30;;;11.60;65.60;;;;;;4993343;28;20209;-59
2021/08/07 16:56:24;;;;;;;2.67;2.17;;;11.60;65.60;;;;;;4992754;28;20409;-59
2021/08/07 16:58:54;;;;;;;3.20;2.28;;;11.60;65.60;;;;;;4993565;28;20189;-59
2021/08/07 17:01:25;;;;;;;3.80;2.30;;;11.60;65.70;;;;;;4993525;28;20300;-59
2021/08/07 17:03:56;;;;;;;3.05;2.45;;;11.60;65.70;;;;;;4993744;28;20272;-59
2021/08/07 17:06:28;;;;;;;3.40;2.55;;;11.60;65.70;;;;;;4993252;28;20411;-59
2021/08/07 17:08:58;;;;;;;3.22;2.70;;;11.60;65.70;;;;;;4993166;28;20694;-59
2021/08/07 17:11:29;;;;;;;3.15;2.38;;;11.60;65.70;;;;;;4993138;28;20800;-60
2021/08/07 17:13:59;;;;;;;2.85;2.55;;;11.50;65.70;;;;;;4993257;28;20673;-58
2021/08/07 17:16:30;;;;;;;3.05;2.40;;;11.60;65.80;;;;;;4993054;28;20709;-58
2021/08/07 17:19:00;;;;;;;2.92;2.45;;;11.60;65.80;;;;;;4993058;28;20616;-59
2021/08/07 17:21:33;;;;;;;3.47;2.42;;;11.60;65.80;;;;;;4992749;28;20201;-59
2021/08/07 17:24:04;;;;;;;3.17;2.50;;;11.60;65.70;;;;;;4993048;28;20197;-59
2021/08/07 17:26:35;;;;;;;3.40;2.53;;;11.60;65.70;;;;;;4992640;28;20228;-59
2021/08/07 17:29:06;;;;;;;5.10;2.80;;;11.60;65.70;;;;;;4992760;28;20236;-59
2021/08/07 17:31:37;;;;;;;3.08;2.40;;;11.60;65.70;;;;;;4992908;28;20237;-60
2021/08/07 17:34:08;;;;;;;3.17;2.28;;;11.60;65.80;;;;;;4992808;28;20205;-58
2021/08/07 17:36:41;;;;;;;3.08;2.22;;;11.50;65.70;;;;;;5003180;23;20237;-48
2021/08/07 17:39:11;;;;;;;2.45;2.25;;;11.60;65.80;;;;;;4992742;28;20240;-45
2021/08/07 17:41:41;;;;;;;2.65;2.40;;;11.50;65.70;;;;;;4992490;28;20240;-43
2021/08/07 17:44:12;;;;;;;3.03;2.58;;;11.50;65.80;;;;;;4991650;28;20292;-42
2021/08/07 17:46:43;;;;;;;2.75;2.40;;;11.50;65.80;;;;;;4991852;28;20252;-54
2021/08/07 17:49:14;;;;;;;3.33;2.55;;;11.60;65.90;;;;;;4991818;28;20272;-52
2021/08/07 17:51:46;;;;;;;3.67;2.40;;;11.50;65.80;;;;;;4992569;28;20251;-49
2021/08/07 17:54:16;;;;;;;3.22;2.30;;;11.50;65.80;;;;;;4992217;28;20233;-57
2021/08/07 17:56:47;;;;;;;3.25;2.58;;;11.50;65.80;;;;;;4992311;28;20257;-43
2021/08/07 17:59:20;;;;;;;3.67;2.03;;;11.50;65.80;;;;;;4992319;28;20640;-44
2021/08/07 18:01:51;;;;;;;3.15;2.33;;;11.50;65.80;;;;;;4992324;28;20193;-44
2021/08/07 18:04:22;;;;;;;3.33;2.25;;;11.50;65.80;;;;;;4991713;28;20193;-42
2021/08/07 18:06:54;;;;;;;2.97;2.67;;;11.50;65.70;;;;;;4991752;28;20253;-43
2021/08/07 18:09:25;;;;;;;3.63;2.10;;;11.50;65.70;;;;;;4991880;28;20271;-52
2021/08/07 18:11:57;;;;;;;3.33;2.42;;;11.60;65.70;;;;;;4991564;28;20288;-43
2021/08/07 18:14:27;;;;;;;2.63;2.42;;;11.60;65.80;;;;;;4991657;28;20205;-50
2021/08/07 18:16:57;;;;;;;2.72;2.47;;;11.60;65.80;;;;;;4991721;28;20253;-43
2021/08/07 18:19:28;;;;;;;3.10;2.80;;;11.60;65.80;;;;;;4992074;28;20284;-43
2021/08/07 18:22:00;;;;;;;3.45;2.47;;;11.60;65.80;;;;;;4992148;28;20233;-50
2021/08/07 18:24:31;;;;;;;3.75;2.20;;;11.60;65.80;;;;;;4992139;28;20638;-45
2021/08/07 18:27:01;;;;;;;7.07;2.47;;;11.50;65.80;;;;;;4991874;28;20705;-42
2021/08/07 18:29:31;;;;;;;4.07;2.40;;;11.60;65.80;;;;;;4991837;28;20320;-45
2021/08/07 18:32:02;;;;;;;4.72;2.33;;;11.60;65.90;;;;;;4991623;28;20236;-50
2021/08/07 18:34:36;;;;;;;3.40;2.25;;;11.60;65.90;;;;;;4991846;28;20241;-42
2021/08/07 18:37:08;;;;;;;3.33;2.20;;;11.50;65.80;;;;;;4991678;28;20247;-44
2021/08/07 18:39:39;;;;;;;3.17;2.40;;;11.60;65.90;;;;;;4991459;28;20248;-46
2021/08/07 18:42:09;;;;;;;2.78;2.47;;;11.60;65.80;;;;;;4991500;28;20225;-42
2021/08/07 18:44:40;;;;;;;3.30;2.50;;;11.60;65.90;;;;;;4991913;28;20229;-42
2021/08/07 18:47:12;;;;;;;3.47;2.20;;;11.60;65.90;;;;;;4991595;28;20235;-43
2021/08/07 18:49:42;;;;;;;3.42;2.22;;;11.60;65.80;;;;;;4995370;28;20568;-43
2021/08/07 18:52:15;;;;;;;2.65;2.45;;;11.60;65.80;;;;;;4995708;28;20248;-45
2021/08/07 18:54:45;;;;;;;2.50;2.30;;;11.60;65.80;;;;;;4995719;28;20855;-42
2021/08/07 18:57:16;;;;;;;4.10;2.20;;;11.60;65.80;;;;;;4995169;28;20678;-45
2021/08/07 18:59:46;;;;;;;7.45;2.00;;;11.60;65.80;;;;;;4994891;28;20240;-46
2021/08/07 19:02:17;;;;;;;4.40;2.38;;;11.60;65.80;;;;;;4995324;28;20229;-45
2021/08/07 19:04:47;;;;;;;6.70;2.60;;;11.60;65.80;;;;;;4995455;28;20237;-48
2021/08/07 19:07:19;;;;;;;3.00;2.25;;;11.60;65.90;;;;;;4995302;28;20239;-43
2021/08/07 19:09:50;;;;;;;10.65;2.78;;;11.60;65.90;;;;;;4994981;28;20320;-42
2021/08/07 19:12:20;;;;;;;5.03;2.10;;;11.60;65.90;;;;;;4995319;28;20240;-42
2021/08/07 19:14:51;;;;;;;4.13;2.00;;;11.60;65.90;;;;;;4995392;28;20232;-42
2021/08/07 19:17:21;;;;;;;3.35;2.45;;;11.60;65.80;;;;;;4995376;28;20244;-43
2021/08/07 19:19:51;;;;;;;2.45;2.05;;;11.60;65.90;;;;;;4995410;28;20289;-42
2021/08/07 19:22:24;;;;;;;3.22;1.80;;;11.60;65.80;;;;;;4994552;28;20236;-42
2021/08/07 19:24:54;;;;;;;3.33;2.38;;;11.60;65.80;;;;;;4994342;28;20237;-45
2021/08/07 19:27:25;;;;;;;3.80;1.98;;;11.60;65.80;;;;;;4994978;28;20232;-44
2021/08/07 19:29:55;;;;;;;3.22;1.95;;;11.60;65.70;;;;;;4995049;28;20785;-44
2021/08/07 19:32:25;;;;;;;2.55;1.92;;;11.60;65.70;;;;;;4994830;28;20233;-43
2021/08/07 19:34:56;;;;;;;3.53;2.30;;;11.60;65.70;;;;;;5016461;23;20244;-59
2021/08/07 19:37:28;;;;;;;3.35;2.22;;;11.60;65.80;;;;;;4975461;28;20248;-57
2021/08/07 19:39:59;;;;;;;4.80;2.03;;;11.70;65.80;;;;;;4955573;28;20230;-57
2021/08/07 19:42:29;;;;;;;2.83;2.05;;;11.60;65.80;;;;;;4955345;28;20249;-57
2021/08/07 19:44:59;;;;;;;2.78;1.90;;;11.60;65.80;;;;;;4955531;28;20230;-58
2021/08/07 19:47:30;;;;;;;2.33;2.00;;;11.60;65.80;;;;;;4955741;28;20195;-58
2021/08/07 19:50:00;;;;;;;3.20;1.90;;;11.60;65.90;;;;;;4955869;28;20317;-57
2021/08/07 19:52:32;;;;;;;4.32;2.17;;;11.60;65.90;;;;;;4955530;28;20235;-60
2021/08/07 19:55:03;;;;;;;2.78;1.80;;;11.60;65.90;;;;;;4955352;28;20254;-59
2021/08/07 19:57:33;;;;;;;3.33;2.10;;;11.60;66.30;;;;;;4955266;28;20293;-57
2021/08/07 20:00:04;;;;;;;3.78;2.03;;;11.60;66.00;;;;;;4954636;28;20234;-59
2021/08/07 20:02:34;;;;;;;3.10;1.80;;;11.60;66.00;;;;;;4955573;28;20281;-58
2021/08/07 20:05:05;;;;;;;4.28;1.90;;;11.70;65.90;;;;;;4955628;28;20261;-58
2021/08/07 20:07:37;;;;;;;2.05;1.60;;;11.60;65.90;;;;;;4958556;28;20238;-59
2021/08/07 20:10:08;;;;;;;3.20;2.00;;;11.60;65.90;;;;;;4974554;28;20260;-58
2021/08/07 20:12:38;;;;;;;2.00;1.50;;;11.70;65.90;;;;;;4974764;28;20286;-59
2021/08/07 20:15:10;;;;;;;4.20;1.88;;;11.70;65.90;;;;;;4974619;28;20639;-59
2021/08/07 20:17:40;;;;;;;2.70;2.47;;;11.70;65.90;;;;;;4974608;28;20286;-58
2021/08/07 20:20:12;;;;;;;2.90;1.70;;;11.70;65.90;;;;;;4974847;28;20238;-58
2021/08/07 20:22:44;;;;;;;2.00;1.70;;;11.60;65.80;;;;;;4974836;28;20238;-58
2021/08/07 20:25:15;;;;;;;2.78;1.90;;;11.70;65.90;;;;;;4974723;28;20260;-59
2021/08/07 20:27:45;;;;;;;2.55;1.90;;;11.70;65.90;;;;;;4974147;28;20237;-58
2021/08/07 20:30:16;;;;;;;5.15;2.20;;;11.70;66.00;;;;;;4973891;28;20265;-57
2021/08/07 20:32:46;;;;;;;2.20;1.80;;;11.70;66.00;;;;;;4974622;28;20281;-59
2021/08/07 20:35:18;;;;;;;2.80;1.77;;;11.60;66.00;;;;;;4989511;23;20245;-43
2021/08/07 20:37:50;;;;;;;4.40;2.10;;;11.70;66.00;;;;;;4993461;28;20212;-42
2021/08/07 20:40:21;;;;;;;3.90;1.90;;;11.70;66.00;;;;;;4994278;28;20769;-43
2021/08/07 20:42:52;;;;;;;3.22;1.75;;;11.70;66.00;;;;;;4993874;28;20291;-42
2021/08/07 20:45:22;;;;;;;2.35;1.85;;;11.70;66.00;;;;;;4993716;28;20690;-42
2021/08/07 20:47:52;;;;;;;2.75;1.85;;;11.70;65.90;;;;;;4993831;28;20284;-43
2021/08/07 20:50:23;;;;;;;3.53;1.90;;;11.70;66.00;;;;;;4993417;28;20312;-42
2021/08/07 20:52:57;;;;;;;5.13;2.17;;;11.70;65.90;;;;;;4993206;28;20259;-42
2021/08/07 20:55:27;;;;;;;3.13;1.90;;;11.70;65.90;;;;;;4993327;28;20287;-44
2021/08/07 20:57:58;;;;;;;3.88;1.77;;;11.70;65.90;;;;;;4993610;28;20660;-44
2021/08/07 21:00:28;;;;;;;3.10;2.25;;;11.70;65.90;;;;;;4993518;28;20284;-42
2021/08/07 21:02:59;;;;;;;3.10;1.77;;;11.80;66.00;;;;;;4992971;28;20240;-43
2021/08/07 21:05:29;;;;;;;2.95;1.70;;;11.70;65.90;;;;;;4992884;28;20313;-43
2021/08/07 21:08:01;;;;;;;3.13;1.90;;;11.70;65.90;;;;;;4992978;28;20294;-43
2021/08/07 21:10:32;;;;;;;3.08;1.80;;;11.70;65.90;;;;;;4991799;28;20260;-44
2021/08/07 21:13:02;;;;;;;2.53;1.73;;;11.70;65.90;;;;;;4992731;28;20248;-46
2021/08/07 21:15:33;;;;;;;3.17;1.95;;;11.70;65.90;;;;;;4992589;28;20245;-46
2021/08/07 21:18:03;;;;;;;3.45;1.73;;;11.70;65.90;;;;;;4992377;28;20236;-43
2021/08/07 21:20:34;;;;;;;3.08;1.77;;;11.70;65.90;;;;;;4992516;28;20229;-45
2021/08/07 21:23:06;;;;;;;3.53;1.77;;;11.70;65.90;;;;;;4992454;28;20232;-44
2021/08/07 21:25:36;;;;;;;4.20;1.88;;;11.70;65.90;;;;;;4992454;28;20248;-42
2021/08/07 21:28:07;;;;;;;2.83;1.60;;;11.70;65.90;;;;;;4992873;28;20225;-44
2021/08/07 21:30:46;;;;;;;2.00;1.80;;;11.70;65.80;;;;;;4992131;28;20953;-42
2021/08/07 21:33:16;;;;;;;5.28;2.13;;;11.80;65.90;;;;;;4993231;28;20197;-44
2021/08/07 21:35:47;;;;;;;2.22;1.80;;;11.70;65.80;;;;;;5002959;23;20460;-58
2021/08/07 21:38:19;;;;;;;3.40;2.10;;;11.80;65.90;;;;;;4992214;28;20197;-58
2021/08/07 21:40:50;;;;;;;2.67;1.80;;;11.70;65.80;;;;;;4992027;28;20228;-59
2021/08/07 21:43:24;;;;;;;3.72;2.22;;;11.80;65.90;;;;;;4992137;28;20193;-59
2021/08/07 21:45:55;;;;;;;3.45;2.00;;;11.70;65.80;;;;;;4992287;28;20308;-60
2021/08/07 21:48:25;;;;;;;2.88;2.20;;;11.80;65.90;;;;;;4991741;28;20281;-59
2021/08/07 21:50:56;;;;;;;3.20;2.53;;;11.70;65.80;;;;;;4991648;28;20663;-57
2021/08/07 21:53:28;;;;;;;3.80;2.22;;;11.70;65.80;;;;;;4992433;28;20240;-60
2021/08/07 21:55:59;;;;;;;4.15;2.40;;;11.70;65.80;;;;;;4992596;28;20225;-56
2021/08/07 21:58:29;;;;;;;11.77;2.75;;;11.70;65.80;;;;;;4992604;28;20229;-58
2021/08/07 22:01:02;;;;;;;8.00;2.60;;;11.70;65.90;;;;;;4992651;28;20560;-59
2021/08/07 22:03:32;;;;;;;5.50;2.63;;;11.70;65.90;;;;;;4991800;28;20220;-58
2021/08/07 22:06:03;;;;;;;4.80;2.30;;;11.70;65.80;;;;;;4991814;28;20217;-58
2021/08/07 22:08:35;;;;;;;4.47;2.13;;;11.80;65.90;;;;;;4991826;28;20303;-59
2021/08/07 22:11:05;;;;;;;6.13;2.33;;;11.70;65.80;;;;;;4992073;28;20233;-59
2021/08/07 22:13:36;;;;;;;5.65;2.30;;;11.80;65.90;;;;;;4991956;28;20197;-56
2021/08/07 22:16:07;;;;;;;5.53;2.20;;;11.80;65.90;;;;;;4988604;28;20221;-59
2021/08/07 22:18:37;;;;;;;4.60;2.20;;;11.80;65.90;;;;;;4989576;28;20292;-59
2021/08/07 22:21:08;;;;;;;6.47;2.60;;;11.80;65.90;;;;;;4989340;28;20201;-58
2021/08/07 22:23:40;;;;;;;4.72;2.22;;;11.80;65.90;;;;;;4989576;28;20245;-60
2021/08/07 22:26:10;;;;;;;3.35;2.22;;;11.80;65.90;;;;;;4989184;28;20304;-60
2021/08/07 22:28:41;;;;;;;5.35;2.20;;;11.80;65.90;;;;;;4989146;28;20244;-60
2021/08/07 22:31:11;;;;;;;6.07;2.67;;;11.80;65.90;;;;;;4988956;28;20328;-60
2021/08/07 22:33:42;;;;;;;3.38;2.15;;;11.80;65.90;;;;;;4982968;28;20310;-61
2021/08/07 22:36:13;;;;;;;4.25;2.33;;;11.80;65.90;;;;;;4987551;28;20628;-59
2021/08/07 22:38:45;;;;;;;4.38;2.42;;;11.80;66.00;;;;;;5000579;23;20252;-51
2021/08/07 22:41:15;;;;;;;2.80;2.20;;;11.80;66.00;;;;;;4987954;28;20295;-48
2021/08/07 22:43:46;;;;;;;4.53;2.63;;;11.80;66.00;;;;;;4988216;28;20269;-52
2021/08/07 22:46:16;;;;;;;3.17;2.22;;;11.80;66.00;;;;;;4989235;28;20643;-47
2021/08/07 22:48:47;;;;;;;4.07;2.08;;;11.80;66.00;;;;;;4988282;28;20289;-45
2021/08/07 22:51:17;;;;;;;4.35;2.40;;;11.80;66.00;;;;;;4988257;28;20308;-51
2021/08/07 22:53:49;;;;;;;3.13;2.35;;;11.80;66.00;;;;;;4988549;28;20237;-46
2021/08/07 22:56:20;;;;;;;4.00;2.40;;;11.80;65.90;;;;;;4987082;28;20679;-57
2021/08/07 22:58:50;;;;;;;4.65;2.67;;;11.80;66.00;;;;;;4988774;28;20233;-45
2021/08/07 23:01:21;;;;;;;2.58;2.10;;;11.80;65.90;;;;;;4988570;28;20311;-44
2021/08/07 23:03:52;;;;;;;2.75;2.28;;;11.80;66.00;;;;;;4988527;28;20736;-51
2021/08/07 23:06:22;;;;;;;3.42;2.67;;;11.80;65.90;;;;;;4987830;28;20644;-49
2021/08/07 23:08:54;;;;;;;2.17;1.98;;;11.80;66.00;;;;;;4988605;28;20233;-44
2021/08/07 23:11:25;;;;;;;2.70;2.20;;;11.80;66.00;;;;;;4987388;28;20333;-56
2021/08/07 23:13:55;;;;;;;3.55;2.30;;;11.80;66.00;;;;;;4988126;28;20292;-45
2021/08/07 23:16:26;;;;;;;3.42;2.20;;;11.80;66.00;;;;;;4986974;28;20639;-43
2021/08/07 23:18:56;;;;;;;3.97;2.60;;;11.80;66.00;;;;;;4985945;28;20949;-48
2021/08/07 23:21:26;;;;;;;3.78;2.75;;;11.80;66.00;;;;;;4987346;28;20237;-45
2021/08/07 23:23:59;;;;;;;2.95;2.03;;;11.80;66.10;;;;;;4988160;28;20248;-53
2021/08/07 23:26:29;;;;;;;2.67;2.47;;;11.80;66.10;;;;;;4988001;28;20312;-52
2021/08/07 23:29:01;;;;;;;3.00;2.13;;;11.80;66.10;;;;;;4987837;28;20237;-43